• Join FlightAware (Why Join?)
  • Login
  • US Flag 
12:53PM EDT


 

Airport Tracker/Info


-or-


 

Live Flight TrackerFlight Track Log ✈ N1910A ✈ 05-Jul-2014 ✈ KRIL - KSAF

Flight Track Log - Related Links

Times and Time Zones

All times are in EDT time to prevent confusion due to time zone crossing. See the N1910A flight status page for this flight to view local times or setup timezone preferences in your user account.

Time Position Orientation Groundspeed Altitude Reporting Facility
EDT Latitude Longitude Course Direction KTS MPH feet Rate Location/Type
10:16PM 39.5256 -107.7389 266° West 68 78 5,400  Level Denver Center
10:17PM 39.5208 -107.8164 266° West 186 214 7,700 2,460 Climbing Denver Center
10:18PM 39.4972 -107.9064 251° West 250 288 10,500 2,700 Climbing Denver Center
10:19PM 39.4589 -108.0067 244° Southwest 305 351 13,300 2,700 Climbing Denver Center
10:20PM 39.4036 -108.0897 229° Southwest 305 351 16,100 2,340 Climbing Denver Center
10:21PM 39.3378 -108.1825 227° Southwest 325 374 18,100 1,860 Climbing Denver Center
10:22PM 39.2436 -108.2058 191° South 348 400 20,000 1,860 Climbing Denver Center
10:23PM 39.1531 -108.1472 153° Southeast 364 419 22,000 1,980 Climbing Denver Center
10:24PM 39.0567 -108.0714 149° Southeast 372 428 24,100 1,920 Climbing Denver Center
10:25PM 38.9581 -108.0119 155° Southeast 388 447 26,000 1,800 Climbing Denver Center
10:26PM 38.8586 -107.9519 155° Southeast 392 451 27,900 1,800 Climbing Denver Center
10:27PM 38.7589 -107.8936 155° Southeast 393 452 29,800 1,740 Climbing Denver Center
10:28PM 38.6744 -107.8422 155° Southeast 392 451 31,500 1,560 Climbing Denver Center
10:29PM 38.5531 -107.7694 155° Southeast 395 455 33,000 720 Climbing Denver Center
10:30PM 38.4431 -107.7069 156° South 434 499 33,000  Level Denver Center
10:31PM 38.3367 -107.6397 154° Southeast 443 510 33,000  Level Denver Center
10:33PM 38.2131 -107.5678 155° Southeast 439 505 33,000  Level Denver Center
10:34PM 38.1164 -107.5114 155° Southeast 431 496 33,000  Level Denver Center
10:35PM 38.0119 -107.4506 155° Southeast 417 480 33,000  Level Denver Center
10:36PM 37.8942 -107.3836 156° South 417 480 33,000  Level Denver Center
10:37PM 37.7939 -107.3250 155° Southeast 416 479 33,000  Level Denver Center
10:38PM 37.6786 -107.2567 155° Southeast 412 474 33,000  Level Denver Center
10:39PM 37.5775 -107.2000 156° South 412 474 33,000 -180 Level Denver Center
10:40PM 37.4758 -107.1431 156° South 413 475 32,700 -1,020 Descending Denver Center
10:41PM 37.3533 -107.0717 155° Southeast 430 495 31,000 -1,620 Descending Denver Center
10:42PM 37.2472 -107.0125 156° South 434 499 29,500 -1,440 Descending Denver Center
10:43PM 37.1425 -106.9522 155° Southeast 435 501 28,100 -1,260 Descending Denver Center
10:44PM 37.0217 -106.8850 156° South 429 494 27,000 -600 Descending Denver Center
10:45PM 36.9217 -106.8269 155° Southeast 420 483 27,000  Level Denver Center
10:46PM 36.8081 -106.7642 156° South 409 471 27,000  Level Denver Center
10:47PM 36.7092 -106.7092 156° South 408 470 27,000  Level Denver Center
10:48PM 36.6111 -106.6531 155° Southeast 407 468 27,000 -120 Level Denver Center
10:49PM 36.4967 -106.5906 156° South 406 467 26,800 -840 Descending Denver Center
10:50PM 36.3953 -106.5333 156° South 410 472 25,300 -1,440 Descending Denver Center
10:51PM 36.3006 -106.4814 156° South 414 476 23,900 -1,440 Descending Denver Center
10:52PM 36.1994 -106.4256 156° South 404 465 22,400 -1,560 Descending Denver Center
10:53PM 36.0569 -106.3464 156° South 396 456 20,300 -1,860 Descending Albuquerque Center
10:54PM 35.9600 -106.2933 156° South 386 444 18,000 -2,280 Descending Albuquerque Center
10:55PM 35.8681 -106.2428 156° South 375 432 15,700 -2,400 Descending Albuquerque Center
10:56PM 35.7836 -106.1967 156° South 345 397 13,200 -2,220 Descending Albuquerque Center
10:57PM 35.7078 -106.1550 156° South 312 359 11,300 -1,920 Descending Albuquerque Center
10:58PM 35.6258 -106.1478 176° South 274 315 9,300 -1,680 Descending Albuquerque Center
10:59PM 35.5761 -106.1725 202° Southwest 212 244 7,900 -1,200 Descending Albuquerque Center
11:00PM 35.5683 -106.1336 104° East 139 160 6,900 -720 Descending Albuquerque Center
11:01PM 35.5956 -106.1069 39° Northeast 124 143 6,500 -420 Descending Albuquerque Center